Kildonan, Canada
Current Conditions -  °F | °C
As of 8:00 AM on Wednesday 26 Nov 2014 (Local Time) from CYQQ Reporting Station
Drizzle Drizzle  
Wind Chill: 40°   Ceiling: 700
Heat Index: 43°   Visibility: 2mi
Dew Point: 43°   Wind: 5mph
Humidity: 100%   Direction: 310°NW
Pressure: 30.07"   Gusts: NA
Location:  49.02°N, 125°W
Report Text: CYQQ 261600Z 31004KT 2SM -DZ BR FEW004 BKN007 OVC013 06/06 A3007 RMK SF1ST6SC2 SLP184
Loading
Personal Weather Stations






























Interactive Weather Map New forecast layout! Learn more

10-Day Weather Forecast

Advertisements
Track Severe Weather on mobile